Search for airport 
image banner adimage banner adimage banner ad
image banner ad

07NV - Border Line Farm

Located in Baker, United States

ICAO - 07NV, IATA -

Data provided by Airmate  

General information

Coordinates: N39°6'8" W114°3'12"
Elevation is 5120 feet MSL.
 
View others Airports in Nevada

Operational data

Special qualification required
Current time UTC:
Current local time:
Weather at : KELY - Ely Arpt /Yelland Fld/ ( 71 km )
METAR: KELY 092231Z AUTO 03015KT 10SM BKN100 14/M08 A2999 RMK AO2 WSHFT 2211 T01391078
TAF: KELY 091721Z 0918/1018 36005KT P6SM BKN160 BKN200 FM092100 31007KT P6SM BKN160 BKN200 FM100000 31010G18KT P6SM FEW070 BKN090 BKN150 FM100300 01009KT P6SM SCT100 BKN150
View NOTAMs / SUP AIP / TFR affecting this airport [VIEW]
Communications frequencies: [VIEW]

Runways:

RWY identifierQFULength (ft)Width (ft)SurfaceLDA (ft)
17475050EARTH
35475050EARTH

Airport contact information

Address: Baker United States

Satellite view of 07NV